Happy Valentine's Day! 

Flight Track Log - Related Links

Times and Time Zones

All times are in EDT time to prevent confusion due to time zone crossing. See the DAL2432 flight status page for this flight to view local times or setup timezone preferences in your user account.


Time Position Orientation Groundspeed Altitude Reporting Facility
EDT Latitude Longitude Course Direction KTS MPH feet Rate Location/Type
Tue 10:35:21 PM 40.8033 -111.9633 90° East 153 176 4,900  Level Salt Lake Center
Tue 10:35:58 PM 40.8369 -111.9692 353° North 184 212 5,900 1,670 Climbing Salt Lake Center
Tue 10:36:58 PM 40.9053 -111.9769 355° North 250 288 7,600 1,671 Climbing Salt Lake Center
Tue 10:37:17 PM 40.9186 -111.9786 355° North 249 287 8,100 2,593 Climbing Salt Lake Center
Tue 10:38:00 PM 41.1215 -111.7812 114° Southeast  Level FlightAware Approximate
Tue 10:38:19 PM 40.9950 -111.9903 353° North 270 311 11,100  Level Salt Lake Center
Tue 10:39:00 PM 41.0453 -111.6567 133° Southeast  Level FlightAware Approximate
Tue 10:39:20 PM 41.0639 -111.9531 22° Northeast 301 346 13,600  Level Salt Lake Center
Tue 10:40:00 PM 41.0333 -111.5129 90° East  Level FlightAware Approximate
Tue 10:40:21 PM 41.0606 -111.8150 92° East 361 415 15,000  Level Salt Lake Center
Tue 10:41:23 PM 41.0567 -111.6619 92° East 404 465 17,300 2,390 Climbing Salt Lake Center
Tue 10:42:24 PM 41.0567 -111.5075 90° East 419 482 19,900 2,293 Climbing Salt Lake Center
Tue 10:43:26 PM 41.0656 -111.3494 86° East 431 496 22,000 2,000 Climbing Salt Lake Center
Tue 10:44:27 PM 41.0722 -111.1889 87° East 437 503 24,000 1,869 Climbing Salt Lake Center
Tue 10:45:28 PM 41.0800 -111.0219 86° East 453 521 25,800 1,756 Climbing Salt Lake Center
Tue 10:46:30 PM 41.0906 -110.8189 86° East 461 531 27,600 1,463 Climbing Salt Lake Center
Tue 10:47:31 PM 41.0969 -110.6461 87° East 469 540 28,800 1,122 Climbing Salt Lake Center
Tue 10:48:33 PM 41.1061 -110.4808 86° East 483 556 29,900 1,220 Climbing Salt Lake Center
Tue 10:49:34 PM 41.1136 -110.2803 87° East 488 562 31,300 1,463 Climbing Salt Lake Center
Tue 10:50:36 PM 41.1206 -110.1100 87° East 485 558 32,900 1,463 Climbing Salt Lake Center
Tue 10:51:37 PM 41.1283 -109.9136 87° East 481 554 34,300 1,230 Climbing Salt Lake Center
Tue 10:52:38 PM 41.1339 -109.7456 87° East 480 552 35,400 927 Climbing Salt Lake Center
Tue 10:53:40 PM 41.1406 -109.5803 87° East 472 543 36,200 829 Climbing Salt Lake Center
Tue 10:54:41 PM 41.1467 -109.3842 88° East 478 550 37,100 878 Climbing Salt Lake Center
Tue 10:55:43 PM 41.1519 -109.2183 88° East 476 548 38,000 829 Climbing Salt Lake Center
Tue 10:56:44 PM 41.1583 -109.0258 87° East 473 544 38,800 492 Climbing Salt Lake Center
Tue 10:57:45 PM 41.1642 -108.8619 87° East 470 541 39,000 98 Climbing Salt Lake Center
Tue 10:58:47 PM 41.1694 -108.6714 88° East 468 539 39,000  Level Salt Lake Center
Tue 10:59:48 PM 41.1744 -108.5086 88° East 465 535 39,000  Level Salt Lake Center
Tue 11:00:50 PM 41.1792 -108.3119 88° East 470 541 39,000  Level Denver Center
Tue 11:01:51 PM 41.1831 -108.1461 88° East 472 543 39,000  Level Denver Center
Tue 11:02:52 PM 41.1864 -107.9811 88° East 470 541 39,000  Level Denver Center
Tue 11:03:53 PM 41.1908 -107.7886 88° East 468 539 39,000  Level Denver Center
Tue 11:04:54 PM 41.1931 -107.6244 89° East 466 536 39,000  Level Denver Center
Tue 11:05:55 PM 41.1978 -107.4319 88° East 468 539 39,000  Level Denver Center
Tue 11:06:57 PM 41.1989 -107.2678 89° East 466 536 39,000  Level Denver Center
Tue 11:07:58 PM 41.2022 -107.1031 88° East 467 537 39,000  Level Denver Center
Tue 11:08:59 PM 41.2056 -106.9117 89° East 465 535 39,000  Level Denver Center
Tue 11:10:00 PM 41.2067 -106.7475 89° East 465 535 39,000  Level Denver Center
Tue 11:11:01 PM 41.2083 -106.5825 89° East 467 537 39,000  Level Denver Center
Tue 11:12:02 PM 41.2111 -106.3906 89° East 466 536 39,000  Level Denver Center
Tue 11:13:03 PM 41.2125 -106.2283 89° East 461 531 39,000  Level Denver Center
Tue 11:14:04 PM 41.2114 -106.0419 90° East 455 524 39,000  Level Denver Center
Tue 11:15:05 PM 41.2147 -105.8836 88° East 452 520 39,000  Level Denver Center
Tue 11:16:06 PM 41.2136 -105.7225 90° East 454 522 39,000  Level Denver Center
Tue 11:17:07 PM 41.2131 -105.5353 90° East 456 525 39,000  Level Denver Center
Tue 11:18:08 PM 41.2108 -105.3714 91° East 459 528 39,000  Level Denver Center
Tue 11:19:09 PM 41.2111 -105.2136 90° East 454 522 39,000  Level Denver Center
Tue 11:20:10 PM 41.2111 -105.0328 90° East 444 511 39,000  Level Denver Center
Tue 11:21:11 PM 41.2108 -104.8717 90° East 453 521 39,000  Level Denver Center
Tue 11:22:12 PM 41.2056 -104.6833 92° East 457 526 39,000  Level Denver Center
Tue 11:23:13 PM 41.1956 -104.5247 95° East 455 524 39,000  Level Denver Center
Tue 11:24:14 PM 41.1878 -104.3636 94° East 458 527 39,000  Level Denver Center
Tue 11:25:15 PM 41.1756 -104.1761 95° East 458 527 39,000 49 Level Denver Center
Tue 11:26:16 PM 41.1653 -104.0142 95° East 461 531 39,100  Climbing Denver Center
Tue 11:27:17 PM 41.1550 -103.8556 95° East 453 521 39,000 -49 Descending Denver Center
Tue 11:28:19 PM 41.1433 -103.6686 95° East 453 521 39,000  Level Denver Center
Tue 11:29:19 PM 41.1328 -103.5108 95° East 450 518 39,000  Level Denver Center
Tue 11:30:20 PM 41.1206 -103.3267 95° East 449 517 39,000  Level Denver Center
Tue 11:31:21 PM 41.1083 -103.1697 96° East 448 516 39,000  Level Denver Center
Tue 11:32:22 PM 41.0981 -103.0119 95° East 449 517 39,000  Level Denver Center
Tue 11:33:23 PM 41.0822 -102.8367 97° East 446 513 39,000  Level Denver Center
Tue 11:34:24 PM 41.0656 -102.6814 98° East 445 512 39,000  Level Denver Center
Tue 11:35:25 PM 41.0456 -102.5000 98° East 446 513 39,000  Level Denver Center
Tue 11:36:26 PM 41.0297 -102.3428 98° East 449 517 39,000  Level Denver Center
Tue 11:37:27 PM 41.0136 -102.1853 98° East 452 520 39,000 49 Level Denver Center
Tue 11:38:28 PM 40.9908 -102.0000 99° East 455 524 39,100  Climbing Denver Center
Tue 11:39:29 PM 40.9750 -101.8392 97° East 459 528 39,000  Descending Denver Center
Tue 11:40:30 PM 40.9575 -101.6808 98° East 456 525 39,100  Climbing Denver Center
Tue 11:41:31 PM 40.9367 -101.4978 99° East 451 519 39,000 -49 Descending Denver Center
Tue 11:42:32 PM 40.9156 -101.3431 100° East 447 514 39,000  Level Denver Center
Tue 11:43:33 PM 40.8908 -101.1900 102° East 444 511 39,000  Level Denver Center
Tue 11:44:34 PM 40.8636 -101.0114 101° East 444 511 39,000  Level Denver Center
Tue 11:45:35 PM 40.8400 -100.8617 102° East 448 516 39,000  Level Denver Center
Tue 11:46:36 PM 40.8122 -100.6864 102° East 451 519 39,000  Level Denver Center
Tue 11:47:37 PM 40.7889 -100.5311 101° East 451 519 39,000  Level Denver Center
Tue 11:48:38 PM 40.7603 -100.3553 102° East 441 507 39,000  Level Denver Center
Tue 11:49:39 PM 40.7356 -100.2033 102° East 443 510 39,000  Level Denver Center
Tue 11:50:40 PM 40.7108 -100.0503 102° East 446 513 39,000  Level Denver Center
Tue 11:51:41 PM 40.6814 -99.8725 102° East 447 514 39,000  Level Denver Center
Tue 11:52:42 PM 40.6553 -99.7136 102° East 442 509 39,000  Level Denver Center
Tue 11:53:43 PM 40.6283 -99.5575 103° East 440 506 39,000  Level Denver Center
Tue 11:54:44 PM 40.6017 -99.4017 103° East 438 504 39,000  Level Denver Center
Tue 11:55:45 PM 40.5756 -99.2458 102° East 439 505 39,000  Level Denver Center
Tue 11:56:46 PM 40.5489 -99.0903 103° East 439 505 39,000  Level Denver Center
Tue 11:57:34 PM 40.5275 -98.9656 103° East 443 510 39,000 55 Level Minneapolis Center
Tue 11:58:35 PM 40.4994 -98.8094 103° East 442 509 39,100  Climbing Minneapolis Center
Tue 11:59:35 PM 40.4725 -98.6533 103° East 442 509 39,000 -48 Descending Minneapolis Center
Wed 12:00:39 AM 40.4386 -98.4689 104° East 437 503 39,000  Level Minneapolis Center
Wed 12:01:40 AM 40.4117 -98.3144 103° East 436 502 39,000  Level Minneapolis Center
Wed 12:02:40 AM 40.3839 -98.1608 103° East 434 499 39,000  Level Minneapolis Center
Wed 12:03:41 AM 40.3558 -98.0061 103° East 436 502 39,000  Level Minneapolis Center
Wed 12:04:41 AM 40.3269 -97.8514 104° East 438 504 39,000 -451 Level Minneapolis Center
Wed 12:05:54 AM 40.2989 -97.6972 103° East 437 503 38,000 -863 Descending Minneapolis Center
Wed 12:07:07 AM 40.2633 -97.5081 104° East 444 511 36,900 -1,038 Descending Minneapolis Center
Wed 12:08:07 AM 40.2269 -97.3178 104° East 449 517 35,700 -1,041 Descending Minneapolis Center
Wed 12:09:08 AM 40.1853 -97.1731 111° Southeast 453 521 34,800 -942 Descending Minneapolis Center
Wed 12:10:08 AM 40.1403 -97.0186 111° Southeast 456 525 33,800 -992 Descending Minneapolis Center
Wed 12:11:09 AM 40.0933 -96.8606 111° Southeast 464 534 32,800 -1,041 Descending Minneapolis Center
Wed 12:12:09 AM 40.0361 -96.6697 111° Southeast 471 542 31,700 -1,041 Descending Minneapolis Center
Wed 12:13:10 AM 39.9886 -96.5122 111° Southeast 470 541 30,700 -1,140 Descending Minneapolis Center
Wed 12:14:10 AM 39.9403 -96.3558 112° Southeast 469 540 29,400 -1,983 Descending Minneapolis Center
Wed 12:15:11 AM 39.8925 -96.1989 112° Southeast 468 539 26,700 -2,727 Descending Minneapolis Center
Wed 12:16:11 AM 39.8469 -96.0519 112° Southeast 448 516 23,900 -2,692 Descending Minneapolis Center
Wed 12:16:29 AM 39.8358 -96.0158 112° Southeast 434 499 23,200 -2,430 Descending Kansas City Center
Wed 12:17:30 AM 39.7942 -95.8819 112° Southeast 419 482 20,700 -2,826 Descending Kansas City Center
Wed 12:18:30 AM 39.7486 -95.7314 111° Southeast 401 461 17,500 -2,826 Descending Kansas City Center
Wed 12:19:31 AM 39.7103 -95.6086 112° Southeast 384 442 15,000 -2,607 Descending Kansas City Center
Wed 12:20:32 AM 39.6694 -95.4919 114° Southeast 371 427 12,200 -2,231 Descending Kansas City Center
Wed 12:21:32 AM 39.6314 -95.3742 113° Southeast 368 423 10,500 -1,488 Descending Kansas City Center
Wed 12:22:33 AM 39.5900 -95.2578 115° Southeast 317 365 9,200 -1,525 Descending Kansas City Center
Wed 12:23:34 AM 39.5564 -95.1611 114° Southeast 307 353 7,400 -1,721 Descending Kansas City Center
Wed 12:24:35 AM 39.5236 -95.0644 114° Southeast 304 350 5,700 -1,636 Descending Kansas City Center
Wed 12:25:35 AM 39.4853 -94.9561 115° Southeast 295 339 4,100 -1,091 Descending Kansas City Center
Wed 12:26:36 AM 39.4567 -94.8733 114° Southeast 257 296 3,500 -639 Descending Kansas City Center
Wed 12:27:37 AM 39.4300 -94.7994 115° Southeast 237 273 2,800 -446 Descending Kansas City Center
Wed 12:28:37 AM 39.4072 -94.7344 114° Southeast 209 241 2,600 -198 Descending Kansas City Center
Wed 12:29:38 AM 39.3786 -94.6828 126° Southeast 152 175 2,400 -393 Descending Kansas City Center
Wed 12:30:39 AM 39.3458 -94.6900 190° South 126 145 1,800 -590 Descending Kansas City Center

Login

Don't have an account? Register now (free) for customized features, flight alerts, and more!